Time;durP1;ratioP1;P1;durP2;ratioP2;P2;SDS_P1;SDS_P2;PMS_P1;PMS_P2;Temp;Humidity;BMP_temperature;BMP_pressure;BME280_temperature;BME280_humidity;BME280_pressure;Samples;Min_cycle;Max_cycle;Signal;HPM_P1;HPM_P2
2021/11/13 00:00:40;;;;;;;17.10;15.37;;;;;;;4.97;85.93;100458.09;5014241;28;20781;-77
2021/11/13 00:03:06;;;;;;;18.13;16.17;;;;;;;4.87;86.11;100458.03;5021158;28;20204;-77
2021/11/13 00:05:33;;;;;;;18.03;16.27;;;;;;;4.90;86.21;100429.59;5014647;28;20213;-77
2021/11/13 00:08:02;;;;;;;20.03;16.03;;;;;;;5.00;86.03;100425.34;5018680;28;20209;-77
2021/11/13 00:10:29;;;;;;;18.90;17.07;;;;;;;5.09;85.72;100428.78;5013083;28;20233;-77
2021/11/13 00:12:57;;;;;;;18.47;16.67;;;;;;;5.17;85.14;100441.75;5016635;28;20224;-77
2021/11/13 00:15:24;;;;;;;16.87;15.27;;;;;;;5.13;85.12;100465.88;5013176;28;20304;-76
2021/11/13 00:17:51;;;;;;;16.73;14.93;;;;;;;5.17;85.53;100446.94;5014186;28;20262;-76
2021/11/13 00:20:20;;;;;;;16.70;14.73;;;;;;;5.10;85.29;100447.78;5011363;28;20240;-76
2021/11/13 00:22:46;;;;;;;16.43;14.80;;;;;;;5.11;84.93;100447.81;5017168;28;20286;-76
2021/11/13 00:25:15;;;;;;;16.07;14.47;;;;;;;5.12;85.83;100435.72;5017564;28;20286;-78
2021/11/13 00:27:42;;;;;;;15.77;14.27;;;;;;;5.12;85.70;100439.16;5025954;28;20201;-78
2021/11/13 00:30:10;;;;;;;16.10;14.50;;;;;;;5.11;84.71;100462.44;5020901;28;20205;-77
2021/11/13 00:32:36;;;;;;;16.83;15.13;;;;;;;5.16;84.78;100484.03;5018564;28;20267;-78
2021/11/13 00:35:04;;;;;;;19.10;17.13;;;;;;;5.25;84.34;100483.19;5018769;28;20263;-77
2021/11/13 00:37:30;;;;;;;17.63;15.37;;;;;;;5.31;84.57;100498.72;5022696;28;20256;-76
2021/11/13 00:39:57;;;;;;;15.67;14.07;;;;;;;5.25;83.84;100509.06;5023065;28;20218;-77
2021/11/13 00:42:24;;;;;;;17.13;15.57;;;;;;;5.29;84.04;100516.88;5015993;28;20268;-78
2021/11/13 00:44:51;;;;;;;31.40;23.23;;;;;;;5.34;84.08;100519.47;5016437;28;20666;-78
2021/11/13 00:47:17;;;;;;;32.93;22.83;;;;;;;5.28;84.16;100532.38;5020417;28;20581;-78
2021/11/13 00:49:45;;;;;;;24.53;20.27;;;;;;;5.35;83.77;100521.16;5018821;28;20219;-79
2021/11/13 00:52:11;;;;;;;15.13;13.73;;;;;;;5.12;84.33;100534.03;5021012;28;20238;-78
2021/11/13 00:54:38;;;;;;;17.53;15.40;;;;;;;4.92;85.62;100488.22;5020544;28;20742;-78
2021/11/13 00:57:08;;;;;;;16.13;14.37;;;;;;;4.87;85.65;100460.63;5021462;28;20259;-78
2021/11/13 00:59:36;;;;;;;15.63;14.13;;;;;;;4.96;86.05;100443.41;5021505;28;20583;-78
2021/11/13 01:02:04;;;;;;;15.47;13.83;;;;;;;5.06;86.07;100430.53;5020927;28;20311;-78
2021/11/13 01:04:31;;;;;;;14.57;13.17;;;;;;;5.17;86.36;100426.22;5023583;28;20204;-78
2021/11/13 01:06:57;;;;;;;22.33;20.23;;;;;;;5.26;86.14;100420.22;5022842;28;20211;-78
2021/11/13 01:09:23;;;;;;;18.53;16.67;;;;;;;5.33;85.42;100443.53;5021706;28;20222;-78
2021/11/13 01:11:50;;;;;;;15.50;14.00;;;;;;;5.41;84.70;100459.09;5022382;28;20229;-78
2021/11/13 01:14:16;;;;;;;15.13;13.77;;;;;;;5.45;84.25;100473.78;5019113;28;20810;-78
2021/11/13 01:16:44;;;;;;;16.33;14.70;;;;;;;5.47;84.80;100468.56;5021144;28;20672;-78
2021/11/13 01:19:11;;;;;;;16.00;14.47;;;;;;;5.47;83.95;100484.13;5017993;28;20256;-78
2021/11/13 01:21:38;;;;;;;15.77;14.17;;;;;;;5.49;83.68;100511.75;5021639;28;20321;-78
2021/11/13 01:24:05;;;;;;;17.20;15.07;;;;;;;5.52;83.59;100519.50;5019490;28;20257;-78
2021/11/13 01:26:33;;;;;;;15.70;14.27;;;;;;;5.54;83.20;100529.88;5019739;28;20213;-78
2021/11/13 01:28:59;;;;;;;16.77;15.17;;;;;;;5.57;82.49;100541.13;5011975;28;20296;-78
2021/11/13 01:31:26;;;;;;;14.90;13.57;;;;;;;5.57;82.67;100548.88;5019791;28;20225;-78
2021/11/13 01:33:56;;;;;;;14.63;13.43;;;;;;;5.59;82.76;100554.06;5024410;28;20232;-78
2021/11/13 01:36:24;;;;;;;15.23;13.83;;;;;;;5.60;82.94;100565.28;5015990;28;20584;-78
2021/11/13 01:38:50;;;;;;;15.17;13.67;;;;;;;5.55;82.58;100558.38;5017330;28;21308;-78
2021/11/13 01:41:17;;;;;;;14.67;13.17;;;;;;;5.51;83.03;100538.50;5019368;28;20664;-78
2021/11/13 01:43:44;;;;;;;15.33;13.97;;;;;;;5.43;83.95;100523.78;5022616;28;20229;-78
2021/11/13 01:46:12;;;;;;;15.57;14.13;;;;;;;5.43;84.15;100508.25;5018038;28;20213;-78
2021/11/13 01:48:39;;;;;;;15.10;13.70;;;;;;;5.43;84.03;100491.03;5013428;28;20275;-79
2021/11/13 01:51:17;;;;;;;16.87;14.83;;;;;;;5.38;83.53;100492.72;5022101;28;20740;-78
2021/11/13 01:53:45;;;;;;;15.10;13.80;;;;;;;5.32;83.68;100496.16;5025478;28;20294;-79
2021/11/13 01:56:16;;;;;;;15.33;13.93;;;;;;;5.44;83.01;100502.25;5023435;28;20207;-78
2021/11/13 01:58:43;;;;;;;15.00;13.60;;;;;;;5.45;82.72;100511.72;5014802;28;20210;-78
2021/11/13 02:01:09;;;;;;;13.60;12.20;;;;;;;5.21;82.83;100521.13;5021876;28;20233;-78
2021/11/13 02:03:36;;;;;;;12.53;11.23;;;;;;;5.16;83.01;100510.75;5020665;28;20616;-79
2021/11/13 02:06:02;;;;;;;13.23;11.93;;;;;;;5.20;83.59;100495.25;5020166;28;20273;-78
2021/11/13 02:08:30;;;;;;;13.20;11.93;;;;;;;5.16;83.03;100496.97;5022220;28;20212;-78
2021/11/13 02:10:57;;;;;;;12.30;11.10;;;;;;;5.14;83.44;100491.78;5017922;28;20293;-78
2021/11/13 02:13:23;;;;;;;12.53;11.43;;;;;;;5.09;82.87;100513.31;5020501;28;20776;-78
2021/11/13 02:15:49;;;;;;;12.87;11.57;;;;;;;5.14;82.87;100499.53;5019107;28;20621;-76
2021/11/13 02:18:16;;;;;;;11.40;10.33;;;;;;;5.12;83.17;100508.16;5020998;28;20212;-78
2021/11/13 02:20:45;;;;;;;12.70;11.43;;;;;;;5.17;83.52;100490.91;5019644;28;20775;-79
2021/11/13 02:23:15;;;;;;;12.43;11.27;;;;;;;5.23;83.05;100495.25;5015623;28;20246;-78
2021/11/13 02:25:41;;;;;;;12.87;11.73;;;;;;;5.31;83.36;100475.44;5020073;28;20208;-78
2021/11/13 02:28:10;;;;;;;12.60;11.50;;;;;;;5.35;82.83;100470.28;5017638;28;20441;-78
2021/11/13 02:30:36;;;;;;;12.70;11.50;;;;;;;5.39;82.96;100484.09;5017962;28;20226;-78
2021/11/13 02:33:04;;;;;;;13.63;12.33;;;;;;;5.41;83.38;100476.34;5016269;28;20212;-79
2021/11/13 02:35:32;;;;;;;12.83;11.60;;;;;;;5.40;83.09;100483.25;5024232;28;20808;-79
2021/11/13 02:38:10;;;;;;;12.37;11.27;;;;;;;5.38;83.06;100469.44;5022911;28;20277;-79
2021/11/13 02:40:37;;;;;;;13.93;12.47;;;;;;;5.38;83.08;100461.66;5023874;28;20278;-78
2021/11/13 02:43:04;;;;;;;13.10;11.90;;;;;;;5.40;83.50;100467.72;5028432;28;20617;-79
2021/11/13 02:45:32;;;;;;;12.27;11.17;;;;;;;5.37;83.68;100455.63;5021716;28;20254;-79
2021/11/13 02:48:01;;;;;;;13.40;12.20;;;;;;;5.44;83.53;100448.72;5020251;28;20216;-78
2021/11/13 02:50:28;;;;;;;14.07;12.67;;;;;;;5.39;82.73;100450.44;5027999;28;20278;-79
2021/11/13 02:52:57;;;;;;;13.80;12.60;;;;;;;5.44;82.96;100427.16;5026047;28;20213;-79
2021/11/13 02:55:26;;;;;;;12.67;11.50;;;;;;;5.50;82.72;100440.13;5027658;28;20248;-80
2021/11/13 02:57:53;;;;;;;15.13;13.63;;;;;;;5.50;83.14;100456.50;5023335;28;20225;-79
2021/11/13 03:00:23;;;;;;;13.60;12.30;;;;;;;5.40;82.73;100467.72;5021238;28;20225;-79
2021/11/13 03:02:49;;;;;;;13.37;12.17;;;;;;;5.43;82.95;100465.16;5025615;28;20212;-79
2021/11/13 03:05:25;;;;;;;12.90;11.80;;;;;;;5.36;83.46;100458.22;5027187;28;20213;-79
2021/11/13 03:07:53;;;;;;;12.47;11.37;;;;;;;5.37;82.57;100468.56;5026486;28;20220;-79
2021/11/13 03:10:20;;;;;;;13.53;12.33;;;;;;;5.35;82.31;100487.53;5024537;28;20230;-79
2021/11/13 03:12:48;;;;;;;11.93;10.90;;;;;;;5.38;82.78;100503.06;5024082;28;20263;-79
2021/11/13 03:15:16;;;;;;;13.67;12.47;;;;;;;5.41;82.45;100502.22;5024899;28;20236;-79
2021/11/13 03:17:43;;;;;;;12.30;11.10;;;;;;;5.43;82.76;100493.63;5026535;28;20206;-79
2021/11/13 03:20:12;;;;;;;12.30;11.20;;;;;;;5.29;83.49;100485.81;5022407;28;20686;-78
2021/11/13 03:22:40;;;;;;;12.40;11.40;;;;;;;5.33;83.05;100469.44;5019950;28;20209;-79
2021/11/13 03:25:08;;;;;;;11.77;10.77;;;;;;;5.34;84.02;100460.78;5017721;28;20550;-79
2021/11/13 03:27:36;;;;;;;12.97;11.77;;;;;;;5.43;84.10;100446.13;5024683;28;20232;-79
2021/11/13 03:30:06;;;;;;;12.07;11.03;;;;;;;5.45;83.66;100447.88;5026992;28;20237;-78
2021/11/13 03:32:33;;;;;;;12.57;11.37;;;;;;;5.44;83.27;100451.31;5028665;28;20217;-79
2021/11/13 03:35:01;;;;;;;12.47;11.47;;;;;;;5.43;82.91;100452.19;5022768;28;20236;-78
2021/11/13 03:37:28;;;;;;;13.07;11.87;;;;;;;5.38;83.22;100465.09;5021982;28;20228;-79
2021/11/13 03:39:54;;;;;;;12.53;11.33;;;;;;;5.43;82.82;100454.78;5020089;28;20269;-79
2021/11/13 03:42:21;;;;;;;13.13;11.93;;;;;;;5.46;83.20;100449.59;5025371;28;20207;-79
2021/11/13 03:44:47;;;;;;;12.57;11.47;;;;;;;5.51;82.81;100475.50;5022157;28;20204;-79
2021/11/13 03:47:15;;;;;;;11.77;10.73;;;;;;;5.37;82.44;100476.34;5025848;28;20230;-79
2021/11/13 03:49:41;;;;;;;12.43;11.33;;;;;;;5.41;83.13;100464.28;5023317;28;20213;-79
2021/11/13 03:52:08;;;;;;;12.43;11.33;;;;;;;5.47;82.27;100460.81;5024339;28;20225;-79
2021/11/13 03:54:37;;;;;;;12.10;11.07;;;;;;;5.53;82.44;100468.59;5022540;28;20705;-79
2021/11/13 03:57:04;;;;;;;12.10;10.93;;;;;;;5.40;82.67;100467.72;5025732;28;20207;-80
2021/11/13 03:59:30;;;;;;;12.03;10.97;;;;;;;5.42;82.85;100453.03;5021892;28;20213;-79
2021/11/13 04:01:57;;;;;;;12.20;11.10;;;;;;;5.26;82.96;100467.66;5028429;28;20237;-79
2021/11/13 04:04:24;;;;;;;11.67;10.57;;;;;;;5.36;82.95;100463.38;5020827;28;20210;-78
2021/11/13 04:06:51;;;;;;;12.33;11.13;;;;;;;5.29;83.01;100456.47;5026377;28;20216;-80
2021/11/13 04:09:17;;;;;;;12.57;11.27;;;;;;;5.25;83.16;100453.03;5024421;28;20280;-80
2021/11/13 04:11:44;;;;;;;12.53;11.23;;;;;;;5.12;83.38;100459.84;5026270;28;20737;-79
2021/11/13 04:14:10;;;;;;;11.43;10.43;;;;;;;5.26;83.03;100439.19;5022623;28;20208;-79
2021/11/13 04:16:37;;;;;;;12.40;11.30;;;;;;;5.29;83.35;100431.47;5025633;28;20233;-78
2021/11/13 04:19:09;;;;;;;11.73;10.63;;;;;;;5.27;83.30;100453.00;5017576;28;20229;-79
2021/11/13 04:21:37;;;;;;;11.73;10.63;;;;;;;5.14;83.52;100439.16;5025579;28;20229;-79
2021/11/13 04:24:05;;;;;;;11.33;10.33;;;;;;;5.15;83.56;100434.00;5020661;28;20696;-79
2021/11/13 04:26:31;;;;;;;10.57;9.67;;;;;;;5.22;83.65;100436.63;5025219;28;20635;-79
2021/11/13 04:28:58;;;;;;;12.07;10.87;;;;;;;5.31;83.85;100449.56;5022008;28;20260;-79
2021/11/13 04:31:24;;;;;;;12.47;11.37;;;;;;;5.35;82.97;100464.22;5025395;28;20719;-79
2021/11/13 04:33:55;;;;;;;11.67;10.67;;;;;;;5.45;82.98;100475.47;5022812;28;20270;-79
2021/11/13 04:36:24;;;;;;;12.23;11.10;;;;;;;5.47;82.74;100489.28;5020786;28;20330;-79
2021/11/13 04:38:52;;;;;;;11.93;10.83;;;;;;;5.45;82.99;100478.97;5025312;28;20251;-79
2021/11/13 04:41:19;;;;;;;13.63;12.20;;;;;;;5.41;82.40;100487.56;5024830;28;20709;-79
2021/11/13 04:43:46;;;;;;;12.73;11.53;;;;;;;5.42;82.79;100485.84;5025940;28;20213;-79
2021/11/13 04:46:12;;;;;;;11.40;10.40;;;;;;;5.24;82.63;100476.28;5025050;28;20212;-79
2021/11/13 04:48:39;;;;;;;10.80;9.90;;;;;;;5.06;83.72;100470.19;5025765;28;20204;-79
2021/11/13 04:51:05;;;;;;;11.63;10.47;;;;;;;5.09;83.84;100446.91;5020947;28;20237;-79
2021/11/13 04:53:32;;;;;;;10.87;9.77;;;;;;;5.01;84.50;100433.06;5024395;28;20259;-78
2021/11/13 04:56:00;;;;;;;13.50;12.17;;;;;;;5.10;84.20;100437.44;5015613;28;20829;-78
2021/11/13 04:58:27;;;;;;;12.70;10.63;;;;;;;5.12;84.01;100440.91;5017391;28;20199;-78
2021/11/13 05:00:53;;;;;;;10.57;9.67;;;;;;;5.20;84.25;100446.09;5023494;28;20277;-79
2021/11/13 05:03:19;;;;;;;11.10;10.00;;;;;;;5.15;83.42;100471.94;5021460;28;20213;-78
2021/11/13 05:05:46;;;;;;;10.57;9.57;;;;;;;5.02;84.03;100483.97;5020261;28;20201;-79
2021/11/13 05:08:12;;;;;;;11.40;10.30;;;;;;;5.01;84.07;100461.53;5019634;28;20212;-79
2021/11/13 05:10:39;;;;;;;11.93;10.93;;;;;;;5.14;84.14;100442.63;5024722;28;20720;-79
2021/11/13 05:13:07;;;;;;;11.77;10.57;;;;;;;5.24;84.33;100442.66;5017474;28;20269;-79
2021/11/13 05:15:33;;;;;;;11.73;10.73;;;;;;;5.25;84.83;100419.38;5022326;28;20253;-79
2021/11/13 05:17:59;;;;;;;10.60;9.70;;;;;;;5.31;85.10;100418.50;5027732;28;20264;-79
2021/11/13 05:20:26;;;;;;;10.37;9.47;;;;;;;5.35;85.67;100417.66;5022677;28;20237;-79
2021/11/13 05:22:52;;;;;;;10.17;9.20;;;;;;;5.37;85.35;100437.50;5024572;28;20208;-79
2021/11/13 05:25:22;;;;;;;10.07;9.17;;;;;;;5.38;84.98;100431.47;5022589;28;20618;-79
2021/11/13 05:27:50;;;;;;;10.17;9.23;;;;;;;5.36;85.21;100440.09;5026382;28;20260;-79
2021/11/13 05:30:20;;;;;;;13.90;9.03;;;;;;;5.31;85.81;100419.38;5021268;28;20232;-79
2021/11/13 05:32:47;;;;;;;9.93;9.03;;;;;;;5.25;85.68;100413.31;5020514;28;20274;-78
2021/11/13 05:35:14;;;;;;;9.47;8.57;;;;;;;5.28;86.11;100382.28;5023369;28;20295;-79
2021/11/13 05:37:42;;;;;;;9.87;8.87;;;;;;;5.25;86.31;100372.78;5013702;28;20217;-79
2021/11/13 05:40:10;;;;;;;10.47;9.47;;;;;;;5.26;84.84;100422.81;5014081;28;20208;-78
2021/11/13 05:42:37;;;;;;;10.80;9.80;;;;;;;5.34;84.46;100457.34;5025450;28;20205;-79
2021/11/13 05:45:06;;;;;;;11.23;10.23;;;;;;;5.30;83.60;100497.88;5017595;28;20216;-79
2021/11/13 05:47:34;;;;;;;11.27;10.17;;;;;;;5.40;83.46;100503.94;5018293;28;20642;-79
2021/11/13 05:50:01;;;;;;;10.80;9.90;;;;;;;5.42;83.10;100512.59;5018265;28;20953;-79
2021/11/13 05:52:28;;;;;;;12.20;11.10;;;;;;;5.50;83.19;100515.19;5022160;28;20769;-79
2021/11/13 05:54:54;;;;;;;11.70;10.63;;;;;;;5.54;82.64;100525.56;5023654;28;20230;-79
2021/11/13 05:57:20;;;;;;;11.47;10.27;;;;;;;5.57;82.79;100524.72;5017424;28;20215;-79
2021/11/13 05:59:47;;;;;;;11.10;10.10;;;;;;;5.60;83.76;100513.50;5021758;28;20260;-79
2021/11/13 06:02:13;;;;;;;10.97;9.97;;;;;;;5.65;82.74;100496.22;5017797;28;20239;-79
2021/11/13 06:04:41;;;;;;;11.27;10.27;;;;;;;5.61;83.93;100502.28;5021950;28;20263;-79
2021/11/13 06:07:07;;;;;;;10.87;9.87;;;;;;;5.62;83.56;100485.88;5019892;28;20208;-79
2021/11/13 06:09:34;;;;;;;13.10;10.27;;;;;;;5.64;83.79;100497.13;5018337;28;20214;-79
2021/11/13 06:12:00;;;;;;;14.60;9.70;;;;;;;5.55;83.42;100503.16;5020198;28;20272;-79
2021/11/13 06:14:27;;;;;;;10.97;9.97;;;;;;;5.25;83.41;100503.88;5021246;28;20264;-79
2021/11/13 06:16:53;;;;;;;11.63;10.63;;;;;;;5.08;84.04;100489.16;5023355;28;20232;-78
2021/11/13 06:19:20;;;;;;;12.10;11.00;;;;;;;4.98;84.37;100457.22;5019806;28;20757;-79
2021/11/13 06:21:47;;;;;;;12.13;11.03;;;;;;;5.01;85.29;100433.06;5019254;28;20220;-78
2021/11/13 06:24:14;;;;;;;11.53;10.53;;;;;;;5.00;85.08;100420.16;5021665;28;20216;-78
2021/11/13 06:26:40;;;;;;;11.30;10.27;;;;;;;5.07;85.09;100427.06;5019904;28;20196;-78
2021/11/13 06:29:07;;;;;;;11.00;10.10;;;;;;;5.04;85.11;100422.75;5022352;28;20208;-78
2021/11/13 06:31:34;;;;;;;11.60;10.50;;;;;;;5.12;85.30;100417.59;5019979;28;20225;-78
2021/11/13 06:34:00;;;;;;;12.33;10.37;;;;;;;4.96;85.40;100425.31;5021869;28;20276;-78
2021/11/13 06:36:27;;;;;;;12.03;10.30;;;;;;;5.00;85.79;100402.06;5016003;28;20244;-78
2021/11/13 06:38:55;;;;;;;12.70;11.50;;;;;;;5.04;86.86;100388.28;5014662;28;20206;-78
2021/11/13 06:41:26;;;;;;;11.63;10.60;;;;;;;4.93;86.75;100378.72;5019548;28;20230;-78
2021/11/13 06:43:52;;;;;;;12.07;10.87;;;;;;;4.87;87.34;100365.78;5017709;28;20223;-77
2021/11/13 06:46:19;;;;;;;12.03;10.93;;;;;;;4.98;88.40;100350.31;5015527;28;20218;-78
2021/11/13 06:48:45;;;;;;;12.37;11.27;;;;;;;4.87;88.31;100344.22;5019270;28;21546;-79
2021/11/13 06:51:11;;;;;;;13.47;12.23;;;;;;;4.91;88.94;100326.13;5019812;28;20254;-79
2021/11/13 06:53:38;;;;;;;13.43;12.00;;;;;;;4.99;89.67;100310.63;5015466;28;20620;-80
2021/11/13 06:56:08;;;;;;;12.00;11.00;;;;;;;5.01;90.21;100290.81;5018288;28;20230;-79
2021/11/13 06:58:34;;;;;;;15.30;11.93;;;;;;;5.12;89.87;100294.28;5016695;28;20212;-80
2021/11/13 07:01:01;;;;;;;13.33;11.13;;;;;;;5.06;90.13;100304.63;5020835;28;20234;-79
2021/11/13 07:03:27;;;;;;;13.03;11.83;;;;;;;5.14;91.57;100273.59;5019716;28;20207;-80
2021/11/13 07:05:54;;;;;;;13.03;11.83;;;;;;;5.22;91.30;100269.28;5017497;28;20253;-80
2021/11/13 07:08:20;;;;;;;13.97;11.93;;;;;;;5.29;91.80;100258.06;5021353;28;20269;-80
2021/11/13 07:10:52;;;;;;;12.93;11.80;;;;;;;5.41;91.95;100254.63;5020954;28;20225;-80
2021/11/13 07:13:19;;;;;;;12.53;11.23;;;;;;;5.45;91.61;100251.16;5020444;28;20275;-80
2021/11/13 07:15:46;;;;;;;11.93;10.83;;;;;;;5.52;92.08;100236.47;5018503;28;20282;-80
2021/11/13 07:18:12;;;;;;;13.30;12.00;;;;;;;5.54;91.83;100240.75;5018230;28;20214;-80
2021/11/13 07:20:39;;;;;;;12.77;11.67;;;;;;;5.56;92.21;100244.22;5021139;28;20967;-80
2021/11/13 07:23:06;;;;;;;13.30;11.93;;;;;;;5.56;92.26;100239.03;5029121;28;20212;-81
2021/11/13 07:25:33;;;;;;;13.13;11.93;;;;;;;5.63;91.84;100241.59;5025701;28;20633;-80
2021/11/13 07:28:03;;;;;;;12.30;11.13;;;;;;;5.69;92.02;100251.94;5025125;28;20241;-81
2021/11/13 07:30:38;;;;;;;13.23;12.03;;;;;;;5.71;91.44;100268.38;5023577;28;20220;-80
2021/11/13 07:33:05;;;;;;;14.97;13.53;;;;;;;5.72;90.95;100280.44;5020863;28;20214;-81
2021/11/13 07:35:32;;;;;;;15.27;13.97;;;;;;;5.75;90.94;100296.84;5024748;28;20221;-80
2021/11/13 07:37:59;;;;;;;12.87;11.77;;;;;;;5.44;90.14;100332.25;5024491;28;20211;-82
2021/11/13 07:40:25;;;;;;;15.50;13.87;;;;;;;5.46;90.80;100303.78;5025104;28;20230;-79
2021/11/13 07:42:51;;;;;;;14.17;12.87;;;;;;;5.51;91.34;100299.44;5019667;28;20229;-79
2021/11/13 07:45:18;;;;;;;14.10;12.37;;;;;;;5.60;91.86;100283.06;5020456;28;20614;-79
2021/11/13 07:47:46;;;;;;;14.67;13.30;;;;;;;5.70;91.19;100293.38;5019117;28;20267;-83
2021/11/13 07:50:15;;;;;;;13.63;12.33;;;;;;;5.76;90.78;100308.91;5021735;28;20209;-81
2021/11/13 07:52:43;;;;;;;12.83;11.53;;;;;;;5.78;90.64;100337.41;5024210;28;20210;-80
2021/11/13 07:55:10;;;;;;;16.07;14.70;;;;;;;5.85;90.42;100343.47;5021980;28;20236;-81
2021/11/13 07:57:37;;;;;;;22.17;17.33;;;;;;;5.90;90.50;100329.63;5024819;28;20201;-80
2021/11/13 08:00:06;;;;;;;11.93;10.83;;;;;;;5.71;89.34;100353.84;5022713;28;20278;-80
2021/11/13 08:02:33;;;;;;;12.60;11.30;;;;;;;5.75;89.38;100351.22;5026220;28;20942;-79
2021/11/13 08:05:01;;;;;;;13.73;11.40;;;;;;;5.78;90.68;100338.25;5024866;28;20213;-81
2021/11/13 08:07:28;;;;;;;12.63;11.47;;;;;;;5.85;90.25;100323.59;5024384;28;20215;-81
2021/11/13 08:09:54;;;;;;;12.13;10.93;;;;;;;5.78;89.97;100327.91;5020331;28;20211;-80
2021/11/13 08:12:21;;;;;;;11.47;10.37;;;;;;;5.83;90.19;100333.09;5023027;28;20217;-78
2021/11/13 08:14:47;;;;;;;12.30;11.23;;;;;;;5.66;91.02;100324.47;5025627;28;20714;-78
2021/11/13 08:17:14;;;;;;;11.30;10.20;;;;;;;5.74;90.96;100304.63;5023546;28;20270;-78
2021/11/13 08:19:40;;;;;;;12.43;11.23;;;;;;;5.69;91.79;100291.69;5023061;28;20237;-79
2021/11/13 08:22:08;;;;;;;11.23;10.20;;;;;;;5.78;91.66;100278.69;5027806;28;20255;-78
2021/11/13 08:24:36;;;;;;;12.33;10.93;;;;;;;5.72;92.15;100254.56;5026442;28;20251;-79
2021/11/13 08:27:02;;;;;;;12.47;11.37;;;;;;;5.80;91.66;100262.31;5023196;28;20208;-78
2021/11/13 08:29:29;;;;;;;12.03;10.80;;;;;;;5.86;91.82;100276.09;5022834;28;20201;-79
2021/11/13 08:31:55;;;;;;;11.77;10.73;;;;;;;5.87;91.30;100283.00;5026482;28;20747;-78
2021/11/13 08:34:22;;;;;;;15.40;14.00;;;;;;;6.00;91.97;100290.78;5024459;28;20433;-78
2021/11/13 08:36:48;;;;;;;11.87;10.77;;;;;;;6.03;90.63;100311.50;5026727;28;20220;-79
2021/11/13 08:39:16;;;;;;;13.13;11.93;;;;;;;6.00;91.09;100327.06;5020773;28;20212;-80
2021/11/13 08:41:42;;;;;;;12.40;11.40;;;;;;;5.87;90.91;100326.19;5022239;28;20249;-80
2021/11/13 08:44:09;;;;;;;11.63;10.53;;;;;;;5.91;90.85;100325.31;5020085;28;20217;-81
2021/11/13 08:46:36;;;;;;;11.23;10.23;;;;;;;5.85;90.89;100326.19;5022297;28;20212;-79
2021/11/13 08:49:03;;;;;;;11.53;10.53;;;;;;;5.86;91.25;100322.72;5024105;28;20206;-79
2021/11/13 08:51:30;;;;;;;12.80;11.13;;;;;;;5.81;91.65;100293.38;5026541;28;20261;-78
2021/11/13 08:53:58;;;;;;;12.90;11.70;;;;;;;5.86;93.24;100255.38;5023702;28;20210;-78
2021/11/13 08:56:30;;;;;;;13.10;11.80;;;;;;;5.86;94.10;100221.69;5023984;28;20226;-79
2021/11/13 08:58:58;;;;;;;13.33;12.13;;;;;;;5.89;93.66;100218.25;5021532;28;20261;-79
2021/11/13 09:01:28;;;;;;;13.50;12.20;;;;;;;5.98;94.76;100210.47;5028891;28;20272;-79
2021/11/13 09:03:55;;;;;;;13.23;12.00;;;;;;;6.04;94.72;100202.66;5022328;28;20224;-79
2021/11/13 09:06:29;;;;;;;14.17;12.80;;;;;;;6.04;94.78;100181.09;5020879;28;20308;-79
2021/11/13 09:08:56;;;;;;;14.20;12.77;;;;;;;6.05;94.98;100185.41;5025018;28;20220;-83
2021/11/13 09:11:26;;;;;;;14.50;13.20;;;;;;;6.07;95.15;100187.13;5022099;28;20239;-83
2021/11/13 09:13:55;;;;;;;13.53;12.37;;;;;;;6.01;94.76;100196.66;5020308;28;20659;-84
2021/11/13 09:16:22;;;;;;;14.77;13.37;;;;;;;5.98;93.31;100236.38;5022991;28;20228;-84
2021/11/13 09:18:49;;;;;;;12.20;10.93;;;;;;;6.11;94.09;100234.63;5025697;28;20223;-84
2021/11/13 09:21:15;;;;;;;13.83;12.60;;;;;;;6.09;94.28;100223.41;5024430;28;20232;-84
2021/11/13 09:23:42;;;;;;;14.47;12.43;;;;;;;5.90;93.39;100238.09;5026210;28;20210;-84
2021/11/13 09:26:10;;;;;;;13.97;12.67;;;;;;;6.04;95.29;100188.84;5023059;28;20678;-85
2021/11/13 09:28:37;;;;;;;17.20;12.57;;;;;;;6.32;97.38;100128.25;5025450;28;20209;-84
2021/11/13 09:31:06;;;;;;;14.40;13.10;;;;;;;6.47;96.92;100103.94;5025563;28;20295;-85
2021/11/13 09:33:33;;;;;;;14.40;13.00;;;;;;;6.62;95.93;100117.63;5027536;28;20233;-84
2021/11/13 09:36:00;;;;;;;12.37;11.27;;;;;;;6.70;94.95;100184.16;5026043;28;20209;-80
2021/11/13 09:38:29;;;;;;;13.50;12.27;;;;;;;6.85;94.47;100210.84;5025245;28;20236;-83
2021/11/13 09:40:57;;;;;;;13.23;12.03;;;;;;;6.92;93.75;100215.13;5028273;28;20229;-81
2021/11/13 09:43:25;;;;;;;12.93;11.60;;;;;;;6.93;92.28;100260.94;5023806;28;20271;-82
2021/11/13 09:45:53;;;;;;;12.37;11.27;;;;;;;6.97;90.84;100318.00;5024673;28;20225;-82
2021/11/13 09:48:21;;;;;;;11.47;10.37;;;;;;;7.14;90.22;100330.03;5028181;28;20205;-80
2021/11/13 09:50:49;;;;;;;12.40;11.30;;;;;;;7.34;89.90;100355.84;5027638;28;20240;-80
2021/11/13 09:53:18;;;;;;;11.33;10.33;;;;;;;7.45;89.53;100359.25;5023450;28;20205;-81
2021/11/13 09:55:45;;;;;;;12.83;11.73;;;;;;;7.41;89.02;100404.25;5026001;28;20231;-81
2021/11/13 09:58:11;;;;;;;12.03;11.03;;;;;;;7.51;88.72;100420.63;5023230;28;20281;-82
2021/11/13 10:00:41;;;;;;;10.80;9.90;;;;;;;7.56;88.79;100434.47;5023847;28;20251;-80
2021/11/13 10:03:08;;;;;;;12.47;11.27;;;;;;;7.69;88.10;100433.53;5026703;28;20231;-80
2021/11/13 10:05:36;;;;;;;11.13;10.03;;;;;;;7.76;85.97;100468.09;5024128;28;20305;-78
2021/11/13 10:08:04;;;;;;;12.07;11.07;;;;;;;7.78;85.15;100517.47;5024874;28;20258;-83
2021/11/13 10:10:32;;;;;;;11.73;10.70;;;;;;;7.67;85.57;100553.88;5023875;28;20240;-79
2021/11/13 10:12:59;;;;;;;16.23;14.93;;;;;;;7.73;86.09;100525.28;5029465;28;20450;-81
2021/11/13 10:15:34;;;;;;;11.87;10.93;;;;;;;7.52;85.28;100544.44;5024103;28;20637;-81
2021/11/13 10:18:10;;;;;;;15.90;14.50;;;;;;;7.54;85.78;100512.41;5024837;28;20284;-81
2021/11/13 10:20:41;;;;;;;15.00;13.80;;;;;;;7.52;85.73;100536.66;5023460;28;20221;-81
2021/11/13 10:23:08;;;;;;;13.20;12.10;;;;;;;7.49;86.44;100518.47;5024691;28;20210;-81
2021/11/13 10:25:35;;;;;;;15.63;14.23;;;;;;;7.35;86.29;100523.75;5023636;28;20206;-81
2021/11/13 10:28:09;;;;;;;43.83;35.93;;;;;;;7.31;86.40;100504.75;5024605;28;20209;-81
2021/11/13 10:30:37;;;;;;;17.97;16.43;;;;;;;7.31;87.24;100478.78;5023280;28;20225;-81
2021/11/13 10:33:04;;;;;;;12.60;11.57;;;;;;;7.30;87.25;100486.56;5024984;28;20289;-81
2021/11/13 10:35:44;;;;;;;11.80;10.90;;;;;;;7.36;86.73;100489.13;5025562;28;20202;-82
2021/11/13 10:38:13;;;;;;;13.30;11.90;;;;;;;7.39;87.60;100462.28;5024053;28;20245;-81
2021/11/13 10:40:49;;;;;;;12.50;11.13;;;;;;;7.08;85.56;100514.34;5023178;28;20280;-81
2021/11/13 10:43:16;;;;;;;12.33;11.33;;;;;;;7.15;86.34;100500.47;5024639;28;20617;-81
2021/11/13 10:45:42;;;;;;;12.53;11.53;;;;;;;7.20;87.32;100470.16;5022949;28;20218;-81
2021/11/13 10:48:20;;;;;;;11.63;10.53;;;;;;;7.27;87.52;100468.38;5025335;28;20209;-81
2021/11/13 10:50:48;;;;;;;11.70;10.70;;;;;;;7.30;87.91;100458.84;5023663;28;20228;-81
2021/11/13 10:53:15;;;;;;;14.03;12.73;;;;;;;7.31;88.08;100457.13;5024358;28;20264;-81
2021/11/13 10:55:45;;;;;;;12.67;11.57;;;;;;;7.34;88.31;100442.38;5026273;28;20202;-82
2021/11/13 10:58:26;;;;;;;21.33;19.10;;;;;;;7.42;87.83;100444.94;5029640;28;20312;-81
2021/11/13 11:00:53;;;;;;;15.77;14.40;;;;;;;7.45;87.80;100455.31;5027827;28;20653;-81
2021/11/13 11:03:19;;;;;;;14.00;12.90;;;;;;;7.46;87.28;100464.81;5027979;28;20217;-81
2021/11/13 11:05:49;;;;;;;14.30;12.90;;;;;;;7.45;87.42;100460.53;5027835;28;20271;-81
2021/11/13 11:08:27;;;;;;;11.83;10.83;;;;;;;7.34;87.28;100478.75;5027950;28;20205;-81
2021/11/13 11:10:53;;;;;;;12.00;10.80;;;;;;;7.30;86.76;100483.97;5026908;28;20228;-81
2021/11/13 11:13:41;;;;;;;10.47;9.57;;;;;;;7.24;88.11;100445.91;5028976;28;20762;-81
2021/11/13 11:16:24;;;;;;;10.90;9.83;;;;;;;7.12;87.37;100451.16;5028526;28;20259;-81
2021/11/13 11:19:00;;;;;;;11.50;10.50;;;;;;;7.32;89.25;100417.31;5028295;28;20206;-81